sensor_id;sensor_type;location;lat;lon;timestamp;temperature;humidity
51914;DHT22;37940;53.002;6.930;2022-08-01T00:00:26;17.90;99.90
51914;DHT22;37940;53.002;6.930;2022-08-01T00:02:52;17.90;99.90
51914;DHT22;37940;53.002;6.930;2022-08-01T00:05:17;17.90;99.90
51914;DHT22;37940;53.002;6.930;2022-08-01T00:07:43;17.90;99.90
51914;DHT22;37940;53.002;6.930;2022-08-01T00:10:12;17.90;99.90
51914;DHT22;37940;53.002;6.930;2022-08-01T00:12:39;17.90;99.90
51914;DHT22;37940;53.002;6.930;2022-08-01T00:15:06;17.80;99.90
51914;DHT22;37940;53.002;6.930;2022-08-01T00:17:33;17.80;99.90
51914;DHT22;37940;53.002;6.930;2022-08-01T00:19:59;17.80;99.90
51914;DHT22;37940;53.002;6.930;2022-08-01T00:22:25;17.80;99.90
51914;DHT22;37940;53.002;6.930;2022-08-01T00:24:51;17.70;99.90
51914;DHT22;37940;53.002;6.930;2022-08-01T00:27:16;17.70;99.90
51914;DHT22;37940;53.002;6.930;2022-08-01T00:29:42;17.70;99.90
51914;DHT22;37940;53.002;6.930;2022-08-01T00:32:08;17.70;99.90
51914;DHT22;37940;53.002;6.930;2022-08-01T00:34:33;17.70;99.90
51914;DHT22;37940;53.002;6.930;2022-08-01T00:36:59;17.60;99.90
51914;DHT22;37940;53.002;6.930;2022-08-01T00:39:25;17.60;99.90
51914;DHT22;37940;53.002;6.930;2022-08-01T00:41:50;17.60;99.90
51914;DHT22;37940;53.002;6.930;2022-08-01T00:44:16;17.60;99.90
51914;DHT22;37940;53.002;6.930;2022-08-01T00:46:42;17.60;99.90
51914;DHT22;37940;53.002;6.930;2022-08-01T00:49:08;17.60;99.90
51914;DHT22;37940;53.002;6.930;2022-08-01T00:51:34;17.50;99.90
51914;DHT22;37940;53.002;6.930;2022-08-01T00:54:00;17.50;99.90
51914;DHT22;37940;53.002;6.930;2022-08-01T00:56:27;17.50;99.90
51914;DHT22;37940;53.002;6.930;2022-08-01T00:58:54;17.60;99.90
51914;DHT22;37940;53.002;6.930;2022-08-01T01:01:20;17.60;99.90
51914;DHT22;37940;53.002;6.930;2022-08-01T01:03:51;17.50;99.90
51914;DHT22;37940;53.002;6.930;2022-08-01T01:09:12;17.50;99.90
51914;DHT22;37940;53.002;6.930;2022-08-01T01:14:21;17.60;99.90
51914;DHT22;37940;53.002;6.930;2022-08-01T01:16:49;17.40;99.90
51914;DHT22;37940;53.002;6.930;2022-08-01T01:19:21;17.50;99.90
51914;DHT22;37940;53.002;6.930;2022-08-01T01:22:00;17.50;99.90
51914;DHT22;37940;53.002;6.930;2022-08-01T01:25:02;17.60;99.90
51914;DHT22;37940;53.002;6.930;2022-08-01T01:27:51;17.60;99.90
51914;DHT22;37940;53.002;6.930;2022-08-01T01:30:22;17.60;99.90
51914;DHT22;37940;53.002;6.930;2022-08-01T01:32:51;17.50;99.90
51914;DHT22;37940;53.002;6.930;2022-08-01T01:35:23;17.60;99.90
51914;DHT22;37940;53.002;6.930;2022-08-01T01:37:54;17.60;99.90
51914;DHT22;37940;53.002;6.930;2022-08-01T01:40:21;17.60;99.90
51914;DHT22;37940;53.002;6.930;2022-08-01T01:42:49;17.60;99.90
51914;DHT22;37940;53.002;6.930;2022-08-01T01:45:16;17.60;99.90
51914;DHT22;37940;53.002;6.930;2022-08-01T01:47:42;17.50;99.90
51914;DHT22;37940;53.002;6.930;2022-08-01T01:50:11;17.60;99.90
51914;DHT22;37940;53.002;6.930;2022-08-01T01:52:39;17.50;99.90
51914;DHT22;37940;53.002;6.930;2022-08-01T01:55:07;17.60;99.90
51914;DHT22;37940;53.002;6.930;2022-08-01T01:57:37;17.60;99.90
51914;DHT22;37940;53.002;6.930;2022-08-01T02:00:04;17.60;99.90
51914;DHT22;37940;53.002;6.930;2022-08-01T02:02:33;17.60;99.90
51914;DHT22;37940;53.002;6.930;2022-08-01T02:05:00;17.60;99.90
51914;DHT22;37940;53.002;6.930;2022-08-01T02:07:27;17.60;99.90
51914;DHT22;37940;53.002;6.930;2022-08-01T02:09:54;17.50;99.90
51914;DHT22;37940;53.002;6.930;2022-08-01T02:12:21;17.50;99.90
51914;DHT22;37940;53.002;6.930;2022-08-01T02:14:48;17.50;99.90
51914;DHT22;37940;53.002;6.930;2022-08-01T02:17:19;17.50;99.90
51914;DHT22;37940;53.002;6.930;2022-08-01T02:19:46;17.50;99.90
51914;DHT22;37940;53.002;6.930;2022-08-01T02:22:28;17.50;99.90
51914;DHT22;37940;53.002;6.930;2022-08-01T02:25:02;17.50;99.90
51914;DHT22;37940;53.002;6.930;2022-08-01T02:27:36;17.50;99.90
51914;DHT22;37940;53.002;6.930;2022-08-01T02:30:07;17.50;99.90
51914;DHT22;37940;53.002;6.930;2022-08-01T02:32:41;17.40;99.90
51914;DHT22;37940;53.002;6.930;2022-08-01T02:35:25;17.40;99.90
51914;DHT22;37940;53.002;6.930;2022-08-01T02:37:53;17.40;99.90
51914;DHT22;37940;53.002;6.930;2022-08-01T02:40:20;17.40;99.90
51914;DHT22;37940;53.002;6.930;2022-08-01T02:42:51;17.40;99.90
51914;DHT22;37940;53.002;6.930;2022-08-01T02:45:19;17.40;99.90
51914;DHT22;37940;53.002;6.930;2022-08-01T02:47:48;17.40;99.90
51914;DHT22;37940;53.002;6.930;2022-08-01T02:50:16;17.40;99.90
51914;DHT22;37940;53.002;6.930;2022-08-01T02:52:44;17.30;99.90
51914;DHT22;37940;53.002;6.930;2022-08-01T02:55:12;17.30;99.90
51914;DHT22;37940;53.002;6.930;2022-08-01T02:57:38;17.30;99.90
51914;DHT22;37940;53.002;6.930;2022-08-01T03:00:05;17.30;99.90
51914;DHT22;37940;53.002;6.930;2022-08-01T03:02:34;17.20;99.90
51914;DHT22;37940;53.002;6.930;2022-08-01T03:05:02;17.20;99.90
51914;DHT22;37940;53.002;6.930;2022-08-01T03:07:28;17.20;99.90
51914;DHT22;37940;53.002;6.930;2022-08-01T03:09:56;17.10;99.90
51914;DHT22;37940;53.002;6.930;2022-08-01T03:12:26;17.10;99.90
51914;DHT22;37940;53.002;6.930;2022-08-01T03:14:55;17.00;99.90
51914;DHT22;37940;53.002;6.930;2022-08-01T03:17:24;17.00;99.90
51914;DHT22;37940;53.002;6.930;2022-08-01T03:19:52;17.00;99.90
51914;DHT22;37940;53.002;6.930;2022-08-01T03:22:18;16.90;99.90
51914;DHT22;37940;53.002;6.930;2022-08-01T03:24:50;16.90;99.90
51914;DHT22;37940;53.002;6.930;2022-08-01T03:27:19;16.90;99.90
51914;DHT22;37940;53.002;6.930;2022-08-01T03:29:46;16.90;99.90
51914;DHT22;37940;53.002;6.930;2022-08-01T03:32:12;16.90;99.90
51914;DHT22;37940;53.002;6.930;2022-08-01T03:34:39;16.80;99.90
51914;DHT22;37940;53.002;6.930;2022-08-01T03:37:24;16.80;99.90
51914;DHT22;37940;53.002;6.930;2022-08-01T03:40:28;16.80;99.90
51914;DHT22;37940;53.002;6.930;2022-08-01T03:42:56;16.80;99.90
51914;DHT22;37940;53.002;6.930;2022-08-01T03:45:31;16.70;99.90
51914;DHT22;37940;53.002;6.930;2022-08-01T03:48:01;16.70;99.90
51914;DHT22;37940;53.002;6.930;2022-08-01T03:50:30;16.80;99.90
51914;DHT22;37940;53.002;6.930;2022-08-01T03:53:00;16.70;99.90
51914;DHT22;37940;53.002;6.930;2022-08-01T03:55:27;16.80;99.90
51914;DHT22;37940;53.002;6.930;2022-08-01T03:57:53;16.70;99.90
51914;DHT22;37940;53.002;6.930;2022-08-01T04:00:20;16.70;99.90
51914;DHT22;37940;53.002;6.930;2022-08-01T04:02:49;16.70;99.90
51914;DHT22;37940;53.002;6.930;2022-08-01T04:05:15;16.70;99.90
51914;DHT22;37940;53.002;6.930;2022-08-01T04:07:46;16.70;99.90
51914;DHT22;37940;53.002;6.930;2022-08-01T04:10:12;16.70;99.90
51914;DHT22;37940;53.002;6.930;2022-08-01T04:12:38;16.70;99.90
51914;DHT22;37940;53.002;6.930;2022-08-01T04:15:06;16.70;99.90
51914;DHT22;37940;53.002;6.930;2022-08-01T04:17:32;16.70;99.90
51914;DHT22;37940;53.002;6.930;2022-08-01T04:19:57;16.80;99.90
51914;DHT22;37940;53.002;6.930;2022-08-01T04:22:23;16.70;99.90
51914;DHT22;37940;53.002;6.930;2022-08-01T04:24:51;16.80;99.90
51914;DHT22;37940;53.002;6.930;2022-08-01T04:27:23;16.80;99.90
51914;DHT22;37940;53.002;6.930;2022-08-01T04:29:53;16.80;99.90
51914;DHT22;37940;53.002;6.930;2022-08-01T04:32:22;16.90;99.90
51914;DHT22;37940;53.002;6.930;2022-08-01T04:34:49;16.90;99.90
51914;DHT22;37940;53.002;6.930;2022-08-01T04:37:17;17.00;99.90
51914;DHT22;37940;53.002;6.930;2022-08-01T04:39:44;17.00;99.90
51914;DHT22;37940;53.002;6.930;2022-08-01T04:42:11;17.00;99.90
51914;DHT22;37940;53.002;6.930;2022-08-01T04:44:39;17.00;99.90
51914;DHT22;37940;53.002;6.930;2022-08-01T04:47:05;17.10;99.90
51914;DHT22;37940;53.002;6.930;2022-08-01T04:49:33;17.00;99.90
51914;DHT22;37940;53.002;6.930;2022-08-01T04:51:59;17.10;99.90
51914;DHT22;37940;53.002;6.930;2022-08-01T04:54:30;17.10;99.90
51914;DHT22;37940;53.002;6.930;2022-08-01T04:56:59;17.10;99.90
51914;DHT22;37940;53.002;6.930;2022-08-01T04:59:27;17.10;99.90
51914;DHT22;37940;53.002;6.930;2022-08-01T05:02:11;17.10;99.90
51914;DHT22;37940;53.002;6.930;2022-08-01T05:04:38;17.00;99.90
51914;DHT22;37940;53.002;6.930;2022-08-01T05:07:05;17.10;99.90
51914;DHT22;37940;53.002;6.930;2022-08-01T05:09:31;17.00;99.90
51914;DHT22;37940;53.002;6.930;2022-08-01T05:12:00;17.00;99.90
51914;DHT22;37940;53.002;6.930;2022-08-01T05:14:27;16.90;99.90
51914;DHT22;37940;53.002;6.930;2022-08-01T05:16:54;16.90;99.90
51914;DHT22;37940;53.002;6.930;2022-08-01T05:19:20;16.80;99.90
51914;DHT22;37940;53.002;6.930;2022-08-01T05:21:46;16.80;99.90
51914;DHT22;37940;53.002;6.930;2022-08-01T05:24:12;16.70;99.90
51914;DHT22;37940;53.002;6.930;2022-08-01T05:26:39;16.70;99.90
51914;DHT22;37940;53.002;6.930;2022-08-01T05:29:04;16.60;99.90
51914;DHT22;37940;53.002;6.930;2022-08-01T05:31:31;16.60;99.90
51914;DHT22;37940;53.002;6.930;2022-08-01T05:34:00;16.50;99.90
51914;DHT22;37940;53.002;6.930;2022-08-01T05:36:26;16.50;99.90
51914;DHT22;37940;53.002;6.930;2022-08-01T05:38:52;16.50;99.90
51914;DHT22;37940;53.002;6.930;2022-08-01T05:41:17;16.50;99.90
51914;DHT22;37940;53.002;6.930;2022-08-01T05:43:43;16.50;99.90
51914;DHT22;37940;53.002;6.930;2022-08-01T05:46:10;16.50;99.90
51914;DHT22;37940;53.002;6.930;2022-08-01T05:48:36;16.50;99.90
51914;DHT22;37940;53.002;6.930;2022-08-01T05:51:02;16.50;99.90
51914;DHT22;37940;53.002;6.930;2022-08-01T05:53:28;16.50;99.90
51914;DHT22;37940;53.002;6.930;2022-08-01T05:55:54;16.50;99.90
51914;DHT22;37940;53.002;6.930;2022-08-01T05:58:19;16.40;99.90
51914;DHT22;37940;53.002;6.930;2022-08-01T06:00:45;16.40;99.90
51914;DHT22;37940;53.002;6.930;2022-08-01T06:03:11;16.40;99.90
51914;DHT22;37940;53.002;6.930;2022-08-01T06:05:37;16.40;99.90
51914;DHT22;37940;53.002;6.930;2022-08-01T06:08:03;16.40;99.90
51914;DHT22;37940;53.002;6.930;2022-08-01T06:10:29;16.50;99.90
51914;DHT22;37940;53.002;6.930;2022-08-01T06:12:55;16.50;99.90
51914;DHT22;37940;53.002;6.930;2022-08-01T06:15:21;16.60;99.90
51914;DHT22;37940;53.002;6.930;2022-08-01T06:17:47;16.60;99.90
51914;DHT22;37940;53.002;6.930;2022-08-01T06:20:12;16.60;99.90
51914;DHT22;37940;53.002;6.930;2022-08-01T06:22:38;16.70;99.90
51914;DHT22;37940;53.002;6.930;2022-08-01T06:25:04;16.80;99.90
51914;DHT22;37940;53.002;6.930;2022-08-01T06:27:30;16.70;99.90
51914;DHT22;37940;53.002;6.930;2022-08-01T06:29:56;16.80;99.90
51914;DHT22;37940;53.002;6.930;2022-08-01T06:32:23;16.80;99.90
51914;DHT22;37940;53.002;6.930;2022-08-01T06:34:49;16.90;99.90
51914;DHT22;37940;53.002;6.930;2022-08-01T06:37:14;16.90;99.90
51914;DHT22;37940;53.002;6.930;2022-08-01T06:39:41;16.90;99.90
51914;DHT22;37940;53.002;6.930;2022-08-01T06:42:06;16.90;99.90
51914;DHT22;37940;53.002;6.930;2022-08-01T06:44:32;16.90;99.90
51914;DHT22;37940;53.002;6.930;2022-08-01T06:46:58;17.00;99.90
51914;DHT22;37940;53.002;6.930;2022-08-01T06:49:24;17.00;99.90
51914;DHT22;37940;53.002;6.930;2022-08-01T06:51:50;17.00;99.90
51914;DHT22;37940;53.002;6.930;2022-08-01T06:54:16;17.10;99.90
51914;DHT22;37940;53.002;6.930;2022-08-01T06:56:42;17.10;99.90
51914;DHT22;37940;53.002;6.930;2022-08-01T06:59:08;17.00;99.90
51914;DHT22;37940;53.002;6.930;2022-08-01T07:01:34;17.10;99.90
51914;DHT22;37940;53.002;6.930;2022-08-01T07:04:00;17.20;99.90
51914;DHT22;37940;53.002;6.930;2022-08-01T07:06:26;17.20;99.90
51914;DHT22;37940;53.002;6.930;2022-08-01T07:08:52;17.30;99.90
51914;DHT22;37940;53.002;6.930;2022-08-01T07:11:19;17.30;99.90
51914;DHT22;37940;53.002;6.930;2022-08-01T07:13:45;17.30;99.90
51914;DHT22;37940;53.002;6.930;2022-08-01T07:16:17;17.40;99.90
51914;DHT22;37940;53.002;6.930;2022-08-01T07:18:42;17.40;99.90
51914;DHT22;37940;53.002;6.930;2022-08-01T07:21:08;17.40;99.90
51914;DHT22;37940;53.002;6.930;2022-08-01T07:23:34;17.40;99.90
51914;DHT22;37940;53.002;6.930;2022-08-01T07:26:00;17.40;99.90
51914;DHT22;37940;53.002;6.930;2022-08-01T07:28:28;17.40;99.90
51914;DHT22;37940;53.002;6.930;2022-08-01T07:30:53;17.40;99.90
51914;DHT22;37940;53.002;6.930;2022-08-01T07:33:19;17.40;99.90
51914;DHT22;37940;53.002;6.930;2022-08-01T07:35:45;17.40;99.90
51914;DHT22;37940;53.002;6.930;2022-08-01T07:38:10;17.40;99.90
51914;DHT22;37940;53.002;6.930;2022-08-01T07:40:36;17.40;99.90
51914;DHT22;37940;53.002;6.930;2022-08-01T07:43:02;17.40;99.90
51914;DHT22;37940;53.002;6.930;2022-08-01T07:45:28;17.30;99.90
51914;DHT22;37940;53.002;6.930;2022-08-01T07:47:54;17.40;99.90
51914;DHT22;37940;53.002;6.930;2022-08-01T07:50:19;17.40;99.90
51914;DHT22;37940;53.002;6.930;2022-08-01T07:52:45;17.40;99.90
51914;DHT22;37940;53.002;6.930;2022-08-01T07:55:11;17.40;99.90
51914;DHT22;37940;53.002;6.930;2022-08-01T07:57:37;17.50;99.90
51914;DHT22;37940;53.002;6.930;2022-08-01T08:00:04;17.60;99.90
51914;DHT22;37940;53.002;6.930;2022-08-01T08:02:31;17.60;99.90
51914;DHT22;37940;53.002;6.930;2022-08-01T08:04:56;17.60;99.90
51914;DHT22;37940;53.002;6.930;2022-08-01T08:07:22;17.70;99.90
51914;DHT22;37940;53.002;6.930;2022-08-01T08:09:48;17.90;99.90
51914;DHT22;37940;53.002;6.930;2022-08-01T08:12:13;18.00;99.90
51914;DHT22;37940;53.002;6.930;2022-08-01T08:14:39;18.10;99.90
51914;DHT22;37940;53.002;6.930;2022-08-01T08:17:05;18.10;99.90
51914;DHT22;37940;53.002;6.930;2022-08-01T08:19:31;18.20;99.90
51914;DHT22;37940;53.002;6.930;2022-08-01T08:21:59;18.40;99.90
51914;DHT22;37940;53.002;6.930;2022-08-01T08:24:26;18.60;99.90
51914;DHT22;37940;53.002;6.930;2022-08-01T08:27:00;18.80;99.90
51914;DHT22;37940;53.002;6.930;2022-08-01T08:29:27;18.90;99.90
51914;DHT22;37940;53.002;6.930;2022-08-01T08:31:55;19.00;99.90
51914;DHT22;37940;53.002;6.930;2022-08-01T08:34:21;19.20;99.90
51914;DHT22;37940;53.002;6.930;2022-08-01T08:36:50;19.40;99.90
51914;DHT22;37940;53.002;6.930;2022-08-01T08:39:17;19.50;99.90
51914;DHT22;37940;53.002;6.930;2022-08-01T08:41:43;19.60;99.90
51914;DHT22;37940;53.002;6.930;2022-08-01T08:44:09;19.70;99.90
51914;DHT22;37940;53.002;6.930;2022-08-01T08:46:41;19.70;99.90
51914;DHT22;37940;53.002;6.930;2022-08-01T08:49:09;19.60;99.90
51914;DHT22;37940;53.002;6.930;2022-08-01T08:51:38;19.50;99.90
51914;DHT22;37940;53.002;6.930;2022-08-01T08:54:05;19.50;99.90
51914;DHT22;37940;53.002;6.930;2022-08-01T08:56:31;19.60;99.90
51914;DHT22;37940;53.002;6.930;2022-08-01T08:59:01;19.80;99.90
51914;DHT22;37940;53.002;6.930;2022-08-01T09:01:27;20.00;99.90
51914;DHT22;37940;53.002;6.930;2022-08-01T09:03:53;20.30;99.90
51914;DHT22;37940;53.002;6.930;2022-08-01T09:06:19;20.50;99.90
51914;DHT22;37940;53.002;6.930;2022-08-01T09:08:45;20.60;99.90
51914;DHT22;37940;53.002;6.930;2022-08-01T09:11:11;20.60;99.90
51914;DHT22;37940;53.002;6.930;2022-08-01T09:13:37;20.60;99.90
51914;DHT22;37940;53.002;6.930;2022-08-01T09:16:05;20.70;99.90
51914;DHT22;37940;53.002;6.930;2022-08-01T09:18:34;20.70;99.90
51914;DHT22;37940;53.002;6.930;2022-08-01T09:23:48;20.70;99.90
51914;DHT22;37940;53.002;6.930;2022-08-01T09:26:17;20.50;99.90
51914;DHT22;37940;53.002;6.930;2022-08-01T09:28:44;20.30;99.90
51914;DHT22;37940;53.002;6.930;2022-08-01T09:31:12;20.20;99.90
51914;DHT22;37940;53.002;6.930;2022-08-01T09:33:59;20.20;99.90
51914;DHT22;37940;53.002;6.930;2022-08-01T09:36:50;20.40;99.90
51914;DHT22;37940;53.002;6.930;2022-08-01T09:39:26;20.60;99.90
51914;DHT22;37940;53.002;6.930;2022-08-01T09:41:54;20.90;99.90
51914;DHT22;37940;53.002;6.930;2022-08-01T09:44:39;21.20;99.90
51914;DHT22;37940;53.002;6.930;2022-08-01T09:47:06;21.50;99.90
51914;DHT22;37940;53.002;6.930;2022-08-01T09:49:34;21.60;99.90
51914;DHT22;37940;53.002;6.930;2022-08-01T09:52:20;21.60;99.90
51914;DHT22;37940;53.002;6.930;2022-08-01T09:55:01;21.30;99.90
51914;DHT22;37940;53.002;6.930;2022-08-01T09:57:28;21.30;99.90
51914;DHT22;37940;53.002;6.930;2022-08-01T09:59:56;21.40;99.90
51914;DHT22;37940;53.002;6.930;2022-08-01T10:04:55;21.80;99.90
51914;DHT22;37940;53.002;6.930;2022-08-01T10:07:21;21.90;99.90
51914;DHT22;37940;53.002;6.930;2022-08-01T10:09:48;22.00;99.90
51914;DHT22;37940;53.002;6.930;2022-08-01T10:12:19;22.30;99.90
51914;DHT22;37940;53.002;6.930;2022-08-01T10:14:48;22.20;99.90
51914;DHT22;37940;53.002;6.930;2022-08-01T10:17:18;22.10;99.90
51914;DHT22;37940;53.002;6.930;2022-08-01T10:19:45;22.10;99.90
51914;DHT22;37940;53.002;6.930;2022-08-01T10:22:13;22.20;99.90
51914;DHT22;37940;53.002;6.930;2022-08-01T10:24:44;22.20;99.90
51914;DHT22;37940;53.002;6.930;2022-08-01T10:27:14;22.20;99.90
51914;DHT22;37940;53.002;6.930;2022-08-01T10:29:51;22.20;99.90
51914;DHT22;37940;53.002;6.930;2022-08-01T10:32:21;22.10;99.90
51914;DHT22;37940;53.002;6.930;2022-08-01T10:34:51;22.00;99.90
51914;DHT22;37940;53.002;6.930;2022-08-01T10:37:18;21.90;99.90
51914;DHT22;37940;53.002;6.930;2022-08-01T10:39:43;21.90;99.90
51914;DHT22;37940;53.002;6.930;2022-08-01T10:42:11;21.80;99.90
51914;DHT22;37940;53.002;6.930;2022-08-01T10:44:37;21.60;99.90
51914;DHT22;37940;53.002;6.930;2022-08-01T10:47:10;21.40;99.90
51914;DHT22;37940;53.002;6.930;2022-08-01T10:49:57;21.50;99.90
51914;DHT22;37940;53.002;6.930;2022-08-01T10:52:25;21.70;99.90
51914;DHT22;37940;53.002;6.930;2022-08-01T10:55:07;22.00;99.90
51914;DHT22;37940;53.002;6.930;2022-08-01T10:57:46;22.50;99.90
51914;DHT22;37940;53.002;6.930;2022-08-01T11:00:19;22.70;99.90
51914;DHT22;37940;53.002;6.930;2022-08-01T11:02:59;22.50;99.90
51914;DHT22;37940;53.002;6.930;2022-08-01T11:05:32;22.40;99.90
51914;DHT22;37940;53.002;6.930;2022-08-01T11:08:01;22.00;99.90
51914;DHT22;37940;53.002;6.930;2022-08-01T11:10:40;21.80;99.90
51914;DHT22;37940;53.002;6.930;2022-08-01T11:13:06;21.90;99.90
51914;DHT22;37940;53.002;6.930;2022-08-01T11:15:40;22.10;99.90
51914;DHT22;37940;53.002;6.930;2022-08-01T11:21:01;22.20;99.90
51914;DHT22;37940;53.002;6.930;2022-08-01T11:23:28;22.00;99.90
51914;DHT22;37940;53.002;6.930;2022-08-01T11:28:22;22.20;99.90
51914;DHT22;37940;53.002;6.930;2022-08-01T11:38:39;21.70;99.90
51914;DHT22;37940;53.002;6.930;2022-08-01T11:41:30;21.80;99.90
51914;DHT22;37940;53.002;6.930;2022-08-01T11:46:47;21.90;99.90
51914;DHT22;37940;53.002;6.930;2022-08-01T11:54:39;22.50;99.90
51914;DHT22;37940;53.002;6.930;2022-08-01T11:57:06;22.60;99.90
51914;DHT22;37940;53.002;6.930;2022-08-01T11:59:43;22.60;99.90
51914;DHT22;37940;53.002;6.930;2022-08-01T12:02:21;22.50;99.90
51914;DHT22;37940;53.002;6.930;2022-08-01T12:04:49;22.50;99.90
51914;DHT22;37940;53.002;6.930;2022-08-01T12:07:17;22.50;99.90
51914;DHT22;37940;53.002;6.930;2022-08-01T12:09:43;22.60;99.90
51914;DHT22;37940;53.002;6.930;2022-08-01T12:12:10;22.80;99.90
51914;DHT22;37940;53.002;6.930;2022-08-01T12:14:36;22.70;99.90
51914;DHT22;37940;53.002;6.930;2022-08-01T12:17:01;22.60;99.90
51914;DHT22;37940;53.002;6.930;2022-08-01T12:19:27;22.60;99.90
51914;DHT22;37940;53.002;6.930;2022-08-01T12:22:10;22.60;99.90
51914;DHT22;37940;53.002;6.930;2022-08-01T12:24:37;22.80;99.90
51914;DHT22;37940;53.002;6.930;2022-08-01T12:27:04;22.70;99.90
51914;DHT22;37940;53.002;6.930;2022-08-01T12:29:34;22.50;99.90
51914;DHT22;37940;53.002;6.930;2022-08-01T12:32:01;22.30;99.90
51914;DHT22;37940;53.002;6.930;2022-08-01T12:34:30;22.20;99.90
51914;DHT22;37940;53.002;6.930;2022-08-01T12:37:00;22.10;99.90
51914;DHT22;37940;53.002;6.930;2022-08-01T12:39:31;22.10;99.90
51914;DHT22;37940;53.002;6.930;2022-08-01T12:41:57;22.10;99.90
51914;DHT22;37940;53.002;6.930;2022-08-01T12:44:23;22.00;99.90
51914;DHT22;37940;53.002;6.930;2022-08-01T12:46:49;21.90;99.90
51914;DHT22;37940;53.002;6.930;2022-08-01T12:49:15;21.90;99.90
51914;DHT22;37940;53.002;6.930;2022-08-01T12:51:41;22.00;99.90
51914;DHT22;37940;53.002;6.930;2022-08-01T12:54:06;22.30;99.90
51914;DHT22;37940;53.002;6.930;2022-08-01T12:56:35;22.40;99.90
51914;DHT22;37940;53.002;6.930;2022-08-01T12:59:02;22.50;99.90
51914;DHT22;37940;53.002;6.930;2022-08-01T13:01:45;22.60;99.90
51914;DHT22;37940;53.002;6.930;2022-08-01T13:04:10;22.80;99.90
51914;DHT22;37940;53.002;6.930;2022-08-01T13:06:36;22.90;99.90
51914;DHT22;37940;53.002;6.930;2022-08-01T13:09:07;23.10;99.90
51914;DHT22;37940;53.002;6.930;2022-08-01T13:11:33;23.20;99.90
51914;DHT22;37940;53.002;6.930;2022-08-01T13:13:58;23.40;99.90
51914;DHT22;37940;53.002;6.930;2022-08-01T13:16:25;23.40;99.90
51914;DHT22;37940;53.002;6.930;2022-08-01T13:18:53;23.40;99.90
51914;DHT22;37940;53.002;6.930;2022-08-01T13:21:23;23.40;99.90
51914;DHT22;37940;53.002;6.930;2022-08-01T13:24:09;23.40;99.90
51914;DHT22;37940;53.002;6.930;2022-08-01T13:26:47;23.40;99.90
51914;DHT22;37940;53.002;6.930;2022-08-01T13:29:15;23.40;99.90
51914;DHT22;37940;53.002;6.930;2022-08-01T13:31:42;23.20;99.90
51914;DHT22;37940;53.002;6.930;2022-08-01T13:34:08;23.20;99.80
51914;DHT22;37940;53.002;6.930;2022-08-01T13:36:34;23.10;99.20
51914;DHT22;37940;53.002;6.930;2022-08-01T13:39:01;23.10;98.90
51914;DHT22;37940;53.002;6.930;2022-08-01T13:41:46;23.10;98.80
51914;DHT22;37940;53.002;6.930;2022-08-01T13:44:12;22.90;98.40
51914;DHT22;37940;53.002;6.930;2022-08-01T13:46:39;22.80;98.80
51914;DHT22;37940;53.002;6.930;2022-08-01T13:49:06;22.70;98.20
51914;DHT22;37940;53.002;6.930;2022-08-01T13:51:33;22.70;98.10
51914;DHT22;37940;53.002;6.930;2022-08-01T13:53:59;22.90;98.10
51914;DHT22;37940;53.002;6.930;2022-08-01T13:56:25;22.90;97.90
51914;DHT22;37940;53.002;6.930;2022-08-01T13:58:53;22.90;97.30
51914;DHT22;37940;53.002;6.930;2022-08-01T14:01:19;23.00;98.00
51914;DHT22;37940;53.002;6.930;2022-08-01T14:03:45;23.00;98.20
51914;DHT22;37940;53.002;6.930;2022-08-01T14:06:12;23.10;97.70
51914;DHT22;37940;53.002;6.930;2022-08-01T14:08:37;23.00;97.50
51914;DHT22;37940;53.002;6.930;2022-08-01T14:11:03;22.90;96.70
51914;DHT22;37940;53.002;6.930;2022-08-01T14:13:29;22.80;97.10
51914;DHT22;37940;53.002;6.930;2022-08-01T14:15:55;22.70;97.20
51914;DHT22;37940;53.002;6.930;2022-08-01T14:18:21;22.60;96.90
51914;DHT22;37940;53.002;6.930;2022-08-01T14:20:47;22.50;96.50
51914;DHT22;37940;53.002;6.930;2022-08-01T14:23:12;22.40;97.10
51914;DHT22;37940;53.002;6.930;2022-08-01T14:25:39;22.20;96.90
51914;DHT22;37940;53.002;6.930;2022-08-01T14:28:05;22.20;97.50
51914;DHT22;37940;53.002;6.930;2022-08-01T14:30:32;22.10;97.40
51914;DHT22;37940;53.002;6.930;2022-08-01T14:32:58;22.10;97.20
51914;DHT22;37940;53.002;6.930;2022-08-01T14:35:24;22.00;97.00
51914;DHT22;37940;53.002;6.930;2022-08-01T14:37:50;22.00;96.70
51914;DHT22;37940;53.002;6.930;2022-08-01T14:40:16;21.90;96.90
51914;DHT22;37940;53.002;6.930;2022-08-01T14:42:42;21.90;96.80
51914;DHT22;37940;53.002;6.930;2022-08-01T14:45:11;21.80;96.20
51914;DHT22;37940;53.002;6.930;2022-08-01T14:47:38;21.70;96.20
51914;DHT22;37940;53.002;6.930;2022-08-01T14:50:05;21.80;96.80
51914;DHT22;37940;53.002;6.930;2022-08-01T14:52:32;21.80;96.60
51914;DHT22;37940;53.002;6.930;2022-08-01T14:54:58;22.00;96.40
51914;DHT22;37940;53.002;6.930;2022-08-01T14:57:24;22.00;96.80
51914;DHT22;37940;53.002;6.930;2022-08-01T14:59:50;22.00;96.80
51914;DHT22;37940;53.002;6.930;2022-08-01T15:02:16;22.00;96.50
51914;DHT22;37940;53.002;6.930;2022-08-01T15:04:46;22.00;96.60
51914;DHT22;37940;53.002;6.930;2022-08-01T15:07:12;22.00;95.70
51914;DHT22;37940;53.002;6.930;2022-08-01T15:09:38;21.80;96.30
51914;DHT22;37940;53.002;6.930;2022-08-01T15:12:04;21.80;96.20
51914;DHT22;37940;53.002;6.930;2022-08-01T15:14:30;21.60;96.00
51914;DHT22;37940;53.002;6.930;2022-08-01T15:17:23;21.60;96.20
51914;DHT22;37940;53.002;6.930;2022-08-01T15:19:51;21.60;96.00
51914;DHT22;37940;53.002;6.930;2022-08-01T15:22:18;21.60;96.20
51914;DHT22;37940;53.002;6.930;2022-08-01T15:24:44;21.80;95.90
51914;DHT22;37940;53.002;6.930;2022-08-01T15:27:10;21.90;96.40
51914;DHT22;37940;53.002;6.930;2022-08-01T15:29:36;22.00;96.00
51914;DHT22;37940;53.002;6.930;2022-08-01T15:32:03;22.00;96.10
51914;DHT22;37940;53.002;6.930;2022-08-01T15:34:30;22.00;96.60
51914;DHT22;37940;53.002;6.930;2022-08-01T15:36:56;22.00;96.50
51914;DHT22;37940;53.002;6.930;2022-08-01T15:39:22;21.90;96.30
51914;DHT22;37940;53.002;6.930;2022-08-01T15:41:48;21.80;96.00
51914;DHT22;37940;53.002;6.930;2022-08-01T15:44:15;21.70;96.20
51914;DHT22;37940;53.002;6.930;2022-08-01T15:46:43;21.60;96.40
51914;DHT22;37940;53.002;6.930;2022-08-01T15:49:09;21.50;96.30
51914;DHT22;37940;53.002;6.930;2022-08-01T15:51:36;21.40;96.40
51914;DHT22;37940;53.002;6.930;2022-08-01T15:54:01;21.40;96.60
51914;DHT22;37940;53.002;6.930;2022-08-01T15:56:34;21.50;96.70
51914;DHT22;37940;53.002;6.930;2022-08-01T15:59:00;21.50;96.90
51914;DHT22;37940;53.002;6.930;2022-08-01T16:01:26;21.50;96.90
51914;DHT22;37940;53.002;6.930;2022-08-01T16:03:52;21.60;96.40
51914;DHT22;37940;53.002;6.930;2022-08-01T16:06:18;21.60;96.50
51914;DHT22;37940;53.002;6.930;2022-08-01T16:08:44;21.50;96.50